• Join FlightAware (Why Join?)
  • Login
  • US Flag 
02:41AM EDT


 

Airport Tracker/Info


-or-


 

Live Flight TrackerFlight Track Log ✈ RLI811 ✈ 01-Jul-2013 ✈ KDXR - KHYA

Flight Track Log - Related Links

Times and Time Zones

All times are in EDT time to prevent confusion due to time zone crossing. See the RLI811 flight status page for this flight to view local times or setup timezone preferences in your user account.

Time Position Orientation Groundspeed Altitude Reporting Facility
EDT Latitude Longitude Course Direction KTS MPH feet Rate Location/Type
05:31AM -14.3055 35.1306 309° West  Level FlightAware Approximate
05:32AM -14.2761 35.0934 309° West  Level FlightAware Approximate
05:33AM -14.2467 35.0562 309° West  Level FlightAware Approximate
05:34AM -14.2171 35.0192 66° East  Level Estimated
05:35AM -14.1875 34.9823 48° Northeast  Level Estimated
05:36AM -14.1578 34.9453 66° East  Level Estimated
05:37AM -14.1284 34.9082 309° West  Level FlightAware Approximate
05:38AM -14.0987 34.8713 64° Northeast  Level Estimated
05:39AM -14.0692 34.8342 309° West  Level FlightAware Approximate
05:40AM -14.0397 34.7971 309° West  Level FlightAware Approximate
05:41AM -14.0100 34.7602 72° East  Level Estimated
05:42AM -13.9803 34.7233 66° East  Level Estimated
05:43AM -13.9508 34.6863 309° West  Level FlightAware Approximate
05:44AM -13.9211 34.6495 69° East  Level Estimated
05:45AM -13.8915 34.6125 310° West  Level FlightAware Approximate
05:46AM -13.8617 34.5756 64° Northeast  Level Estimated
05:47AM -13.8321 34.5388 310° West  Level FlightAware Approximate
05:48AM -13.8024 34.5019 310° West  Level FlightAware Approximate
05:49AM -13.7727 34.4651 310° West  Level FlightAware Approximate
05:50AM -13.7430 34.4282 310° West  Level FlightAware Approximate
05:51AM -13.7132 34.3914 310° West  Level FlightAware Approximate
05:52AM -13.6835 34.3546 310° West  Level FlightAware Approximate
05:53AM -13.6538 34.3178 84° East  Level Estimated
05:54AM -13.6240 34.2810 310° West  Level FlightAware Approximate
05:55AM -13.5943 34.2442 310° West  Level FlightAware Approximate
05:56AM -13.5645 34.2074 310° West  Level FlightAware Approximate
05:57AM -13.5347 34.1707 310° West  Level FlightAware Approximate
05:58AM -13.5050 34.1339 310° West  Level FlightAware Approximate
05:59AM -13.4752 34.0972 86° East  Level Estimated
06:00AM -13.4454 34.0605 310° West  Level FlightAware Approximate
06:01AM -13.4156 34.0238 310° West  Level FlightAware Approximate
06:02AM -13.3858 33.9870 310° West  Level FlightAware Approximate
06:03AM -13.3560 33.9503 310° West  Level FlightAware Approximate
06:04AM -13.3262 33.9137 83° East  Level Estimated
06:05AM -13.2963 33.8770 310° West  Level FlightAware Approximate
06:06AM -13.2665 33.8403 310° West  Level FlightAware Approximate
06:07AM -13.2367 33.8037 310° West  Level FlightAware Approximate
06:08AM -13.2068 33.7671 310° West  Level FlightAware Approximate
06:09AM -13.1769 33.7304 310° West  Level FlightAware Approximate
06:10AM -13.1471 33.6938 310° West  Level FlightAware Approximate
06:11AM -13.1172 33.6572 79° East  Level Estimated
06:12AM -13.0873 33.6206 310° West  Level FlightAware Approximate
06:13AM -13.0574 33.5841 310° West  Level FlightAware Approximate
06:14AM -13.0275 33.5475 310° West  Level FlightAware Approximate
06:15AM -12.9976 33.5110 310° West  Level FlightAware Approximate
06:16AM -12.9677 33.4744 90° East  Level Estimated
06:17AM -12.9378 33.4378 71° East  Level Estimated
06:18AM -12.9079 33.4013 310° West  Level FlightAware Approximate
06:19AM -12.8780 33.3647 83° East  Level Estimated
06:20AM -12.8480 33.3283 310° West  Level FlightAware Approximate
06:21AM -12.8180 33.2918 310° West  Level FlightAware Approximate
06:22AM -12.7881 33.2553 75° East  Level Estimated
06:23AM -12.7581 33.2189 310° West  Level FlightAware Approximate
06:24AM -12.7281 33.1825 310° West  Level FlightAware Approximate
06:25AM -12.6981 33.1460 80° East  Level Estimated
06:26AM -12.6681 33.1096 310° West  Level FlightAware Approximate
06:27AM -12.6382 33.0731 143° Southeast  Level Estimated
06:28AM -12.6082 33.0366 157° South  Level Estimated
06:29AM -12.5782 33.0001 310° West  Level FlightAware Approximate
06:30AM -12.5483 32.9637 151° Southeast  Level Estimated
06:31AM -12.5184 32.9272 310° West  Level FlightAware Approximate
06:32AM -12.4884 32.8908 151° Southeast  Level Estimated
06:33AM -12.4585 32.8543 151° Southeast  Level Estimated
06:34AM -12.4285 32.8179 151° Southeast  Level Estimated
06:35AM -12.3985 32.7815 151° Southeast  Level Estimated
06:36AM -12.3686 32.7451 151° Southeast  Level Estimated
06:37AM -12.3386 32.7087 151° Southeast  Level Estimated
06:38AM -12.3086 32.6723 151° Southeast  Level Estimated
06:39AM -12.2786 32.6359 151° Southeast  Level Estimated
06:40AM -12.2486 32.5995 151° Southeast  Level Estimated
06:41AM -12.2187 32.5631 151° Southeast  Level Estimated
06:42AM -12.1887 32.5268 151° Southeast  Level Estimated
06:43AM -12.1587 32.4904 151° Southeast  Level Estimated
06:44AM -12.1286 32.4541 151° Southeast  Level Estimated
06:45AM -12.0986 32.4177 151° Southeast  Level Estimated
06:46AM -12.0686 32.3814 151° Southeast  Level Estimated
06:47AM -12.0386 32.3451 151° Southeast  Level Estimated
06:48AM -12.0086 32.3088 151° Southeast  Level Estimated
06:49AM -11.9785 32.2724 151° Southeast  Level Estimated
06:50AM -11.9485 32.2361 151° Southeast  Level Estimated
06:51AM -11.9185 32.1999 151° Southeast  Level Estimated
06:52AM -11.8884 32.1636 151° Southeast  Level Estimated
06:53AM -11.8584 32.1273 151° Southeast  Level Estimated
06:54AM -11.8283 32.0910 151° Southeast  Level Estimated
06:55AM -11.7983 32.0548 151° Southeast  Level Estimated
06:56AM -11.7682 32.0185 151° Southeast  Level Estimated
06:57AM -11.7381 31.9823 151° Southeast  Level Estimated
06:58AM -11.7080 31.9461 151° Southeast  Level Estimated
06:59AM -11.6780 31.9098 151° Southeast  Level Estimated
07:00AM -11.6479 31.8736 151° Southeast  Level Estimated
07:01AM -11.6178 31.8374 151° Southeast  Level Estimated
07:02AM -11.5877 31.8012 151° Southeast  Level Estimated
07:03AM -11.5576 31.7650 151° Southeast  Level Estimated
07:04AM -11.5275 31.7288 151° Southeast  Level Estimated
07:05AM -11.4974 31.6926 151° Southeast  Level Estimated
07:06AM -11.4673 31.6565 151° Southeast  Level Estimated
07:07AM -11.4372 31.6203 151° Southeast  Level Estimated
07:08AM -11.4071 31.5841 151° Southeast  Level Estimated
07:09AM -11.3770 31.5480 151° Southeast  Level Estimated
07:10AM -11.3468 31.5119 151° Southeast  Level Estimated
07:11AM -11.3167 31.4757 151° Southeast  Level Estimated
07:12AM -11.2865 31.4396 151° Southeast  Level Estimated
07:13AM -11.2564 31.4035 151° Southeast  Level Estimated
07:14AM -11.2263 31.3674 151° Southeast  Level Estimated
07:15AM -11.1961 31.3313 151° Southeast  Level Estimated
07:16AM -11.1660 31.2952 151° Southeast  Level Estimated
07:17AM -11.1358 31.2591 151° Southeast  Level Estimated
07:18AM -11.1056 31.2230 151° Southeast  Level Estimated
07:19AM -11.0755 31.1869 151° Southeast  Level Estimated
07:20AM -11.0453 31.1509 151° Southeast  Level Estimated
07:21AM -11.0151 31.1148 151° Southeast  Level Estimated
07:22AM -10.9850 31.0787 151° Southeast  Level Estimated
07:23AM -10.9548 31.0427 151° Southeast  Level Estimated
07:24AM -10.9246 31.0067 151° Southeast  Level Estimated
07:25AM -10.8944 30.9706 151° Southeast  Level Estimated
07:26AM -10.8642 30.9346 151° Southeast  Level Estimated
07:27AM -10.8340 30.8986 151° Southeast  Level Estimated
07:28AM -10.8038 30.8626 151° Southeast  Level Estimated
07:29AM -10.7736 30.8266 151° Southeast  Level Estimated
07:30AM -10.7434 30.7906 151° Southeast  Level Estimated
07:31AM -10.7132 30.7546 151° Southeast  Level Estimated
07:32AM -10.6829 30.7186 151° Southeast  Level Estimated
07:33AM -10.6527 30.6827 151° Southeast  Level Estimated
07:34AM -10.6225 30.6467 151° Southeast  Level Estimated
07:35AM -10.5923 30.6107 151° Southeast  Level Estimated
07:36AM -10.5620 30.5748 151° Southeast  Level Estimated
07:37AM -10.5318 30.5389 151° Southeast  Level Estimated
07:38AM -10.5015 30.5029 151° Southeast  Level Estimated
07:39AM -10.4713 30.4670 151° Southeast  Level Estimated
07:40AM -10.4410 30.4311 151° Southeast  Level Estimated
07:41AM -10.4108 30.3951 151° Southeast  Level Estimated
07:42AM -10.3805 30.3592 151° Southeast  Level Estimated
07:43AM -10.3502 30.3233 151° Southeast  Level Estimated
07:44AM -10.3200 30.2875 151° Southeast  Level Estimated
07:45AM -10.2897 30.2516 151° Southeast  Level Estimated
07:46AM -10.2594 30.2157 151° Southeast  Level Estimated
07:47AM -10.2291 30.1798 151° Southeast  Level Estimated
07:48AM -10.1989 30.1439 151° Southeast  Level Estimated
07:49AM -10.1686 30.1081 151° Southeast  Level Estimated
07:50AM -10.1383 30.0722 151° Southeast  Level Estimated
07:51AM -10.1080 30.0364 151° Southeast  Level Estimated
07:52AM -10.0777 30.0005 151° Southeast  Level Estimated
07:53AM -10.0474 29.9647 151° Southeast  Level Estimated
07:54AM -10.0171 29.9289 151° Southeast  Level Estimated
07:55AM -9.9868 29.8931 151° Southeast  Level Estimated
07:56AM -9.9564 29.8573 151° Southeast  Level Estimated
07:57AM -9.9261 29.8214 151° Southeast  Level Estimated
07:58AM -9.8958 29.7856 151° Southeast  Level Estimated
07:59AM -9.8655 29.7498 151° Southeast  Level Estimated
08:00AM -9.8351 29.7141 151° Southeast  Level Estimated
08:01AM -9.8048 29.6783 151° Southeast  Level Estimated
08:02AM -9.7745 29.6425 151° Southeast  Level Estimated
08:03AM -9.7441 29.6067 151° Southeast  Level Estimated
08:04AM -9.7138 29.5710 151° Southeast  Level Estimated
08:05AM -9.6834 29.5352 151° Southeast  Level Estimated
08:06AM -9.6531 29.4995 151° Southeast  Level Estimated
08:07AM -9.6227 29.4637 151° Southeast  Level Estimated
08:08AM -9.5924 29.4280 151° Southeast  Level Estimated
08:09AM -9.5620 29.3923 151° Southeast  Level Estimated
08:10AM -9.5316 29.3566 151° Southeast  Level Estimated
08:11AM -9.5013 29.3209 151° Southeast  Level Estimated
08:12AM -9.4709 29.2851 151° Southeast  Level Estimated
08:13AM -9.4405 29.2494 151° Southeast  Level Estimated
08:14AM -9.4101 29.2137 151° Southeast  Level Estimated
08:15AM -9.3797 29.1780 151° Southeast  Level Estimated
08:16AM -9.3493 29.1424 151° Southeast  Level Estimated
08:17AM -9.3189 29.1067 151° Southeast  Level Estimated
08:18AM -9.2886 29.0710 151° Southeast  Level Estimated
08:19AM -9.2582 29.0354 151° Southeast  Level Estimated
08:20AM -9.2277 28.9997 151° Southeast  Level Estimated
08:21AM -9.1973 28.9641 151° Southeast  Level Estimated
08:22AM -9.1669 28.9284 151° Southeast  Level Estimated
08:23AM -9.1365 28.8928 151° Southeast  Level Estimated
08:24AM -9.1061 28.8571 151° Southeast  Level Estimated
08:25AM -9.0757 28.8215 151° Southeast  Level Estimated
08:26AM -9.0453 28.7859 151° Southeast  Level Estimated
08:27AM -9.0148 28.7503 151° Southeast  Level Estimated
08:28AM -8.9844 28.7146 151° Southeast  Level Estimated
08:29AM -8.9540 28.6791 151° Southeast  Level Estimated
08:30AM -8.9235 28.6434 151° Southeast  Level Estimated
08:31AM -8.8931 28.6079 151° Southeast  Level Estimated
08:32AM -8.8626 28.5723 151° Southeast  Level Estimated